Terminal Aerodrome Forecast
Issued by NWS

Home | Current Version | Previous Version | Text Only | Print | Product List | Glossary On
Versions: 1 2 3 4 5 6 7 8 9 10 11 12 13 14 15 16 17 18 19 20 21 22 23 24 25 26
000
FTUS45 KSLC 302333
TAFEVW
TAF
KEVW 302333Z 3100/3124 02011KT P6SM SCT100
     FM310200 16007KT P6SM SCT120
     FM310500 27008KT P6SM VCSH SCT100 BKN120
      TEMPO 3105/3107 -TSRA SCT080CB BKN100
     FM310800 35006KT P6SM SCT100 BKN140
     FM311500 24010KT P6SM FEW150
     FM312200 27009KT P6SM SCT090 BKN110=

USA.gov is the U.S. government's official web portal to all federal, state and local government web resources and services.